sensor_id;sensor_type;location;lat;lon;timestamp;P1;durP1;ratioP1;P2;durP2;ratioP2
1725;SDS011;41776;48.260;8.928;2023-08-06T00:01:58;1.88;;;1.30;;
1725;SDS011;41776;48.260;8.928;2023-08-06T00:04:25;2.28;;;1.40;;
1725;SDS011;41776;48.260;8.928;2023-08-06T00:06:51;2.40;;;1.60;;
1725;SDS011;41776;48.260;8.928;2023-08-06T00:09:18;2.42;;;1.10;;
1725;SDS011;41776;48.260;8.928;2023-08-06T00:11:45;2.15;;;1.50;;
1725;SDS011;41776;48.260;8.928;2023-08-06T00:14:12;2.53;;;1.20;;
1725;SDS011;41776;48.260;8.928;2023-08-06T00:16:42;2.53;;;1.42;;
1725;SDS011;41776;48.260;8.928;2023-08-06T00:19:09;3.53;;;1.45;;
1725;SDS011;41776;48.260;8.928;2023-08-06T00:21:36;4.07;;;1.77;;
1725;SDS011;41776;48.260;8.928;2023-08-06T00:24:03;5.72;;;1.73;;
1725;SDS011;41776;48.260;8.928;2023-08-06T00:26:30;3.42;;;1.60;;
1725;SDS011;41776;48.260;8.928;2023-08-06T00:28:58;2.88;;;1.85;;
1725;SDS011;41776;48.260;8.928;2023-08-06T00:31:25;5.00;;;2.00;;
1725;SDS011;41776;48.260;8.928;2023-08-06T00:33:51;4.47;;;1.75;;
1725;SDS011;41776;48.260;8.928;2023-08-06T00:36:18;3.05;;;1.73;;
1725;SDS011;41776;48.260;8.928;2023-08-06T00:38:44;2.70;;;1.65;;
1725;SDS011;41776;48.260;8.928;2023-08-06T00:41:11;6.60;;;1.73;;
1725;SDS011;41776;48.260;8.928;2023-08-06T00:43:37;3.83;;;1.80;;
1725;SDS011;41776;48.260;8.928;2023-08-06T00:46:05;3.07;;;1.67;;
1725;SDS011;41776;48.260;8.928;2023-08-06T00:48:32;4.90;;;1.70;;
1725;SDS011;41776;48.260;8.928;2023-08-06T00:50:59;5.47;;;2.00;;
1725;SDS011;41776;48.260;8.928;2023-08-06T00:53:26;3.57;;;1.60;;
1725;SDS011;41776;48.260;8.928;2023-08-06T00:55:52;7.17;;;2.00;;
1725;SDS011;41776;48.260;8.928;2023-08-06T00:58:19;3.88;;;2.15;;
1725;SDS011;41776;48.260;8.928;2023-08-06T01:00:46;4.80;;;1.85;;
1725;SDS011;41776;48.260;8.928;2023-08-06T01:03:14;6.97;;;2.20;;
1725;SDS011;41776;48.260;8.928;2023-08-06T01:05:40;3.55;;;1.98;;
1725;SDS011;41776;48.260;8.928;2023-08-06T01:08:17;3.92;;;2.05;;
1725;SDS011;41776;48.260;8.928;2023-08-06T01:10:56;6.05;;;1.70;;
1725;SDS011;41776;48.260;8.928;2023-08-06T01:13:32;4.47;;;2.10;;
1725;SDS011;41776;48.260;8.928;2023-08-06T01:16:03;3.87;;;1.80;;
1725;SDS011;41776;48.260;8.928;2023-08-06T01:18:32;5.03;;;1.80;;
1725;SDS011;41776;48.260;8.928;2023-08-06T01:20:59;7.07;;;1.63;;
1725;SDS011;41776;48.260;8.928;2023-08-06T01:23:26;2.33;;;1.63;;
1725;SDS011;41776;48.260;8.928;2023-08-06T01:25:55;4.10;;;1.52;;
1725;SDS011;41776;48.260;8.928;2023-08-06T01:28:27;3.33;;;1.50;;
1725;SDS011;41776;48.260;8.928;2023-08-06T01:31:04;3.38;;;1.48;;
1725;SDS011;41776;48.260;8.928;2023-08-06T01:33:36;4.45;;;1.42;;
1725;SDS011;41776;48.260;8.928;2023-08-06T01:36:07;2.35;;;1.58;;
1725;SDS011;41776;48.260;8.928;2023-08-06T01:38:35;3.97;;;1.90;;
1725;SDS011;41776;48.260;8.928;2023-08-06T01:41:01;6.30;;;1.48;;
1725;SDS011;41776;48.260;8.928;2023-08-06T01:43:28;3.70;;;1.75;;
1725;SDS011;41776;48.260;8.928;2023-08-06T01:45:54;2.75;;;1.70;;
1725;SDS011;41776;48.260;8.928;2023-08-06T01:48:21;2.58;;;1.30;;
1725;SDS011;41776;48.260;8.928;2023-08-06T01:50:47;2.60;;;1.38;;
1725;SDS011;41776;48.260;8.928;2023-08-06T01:53:15;5.03;;;1.77;;
1725;SDS011;41776;48.260;8.928;2023-08-06T01:55:42;2.13;;;1.20;;
1725;SDS011;41776;48.260;8.928;2023-08-06T01:58:13;2.13;;;1.20;;
1725;SDS011;41776;48.260;8.928;2023-08-06T02:00:40;3.80;;;1.47;;
1725;SDS011;41776;48.260;8.928;2023-08-06T02:03:06;3.67;;;1.27;;
1725;SDS011;41776;48.260;8.928;2023-08-06T02:05:33;1.65;;;1.10;;
1725;SDS011;41776;48.260;8.928;2023-08-06T02:07:59;2.78;;;1.20;;
1725;SDS011;41776;48.260;8.928;2023-08-06T02:10:27;1.63;;;1.10;;
1725;SDS011;41776;48.260;8.928;2023-08-06T02:12:53;3.23;;;1.50;;
1725;SDS011;41776;48.260;8.928;2023-08-06T02:15:20;1.30;;;1.02;;
1725;SDS011;41776;48.260;8.928;2023-08-06T02:17:46;4.88;;;1.17;;
1725;SDS011;41776;48.260;8.928;2023-08-06T02:20:13;2.85;;;1.48;;
1725;SDS011;41776;48.260;8.928;2023-08-06T02:22:39;2.75;;;1.45;;
1725;SDS011;41776;48.260;8.928;2023-08-06T02:25:06;1.40;;;1.30;;
1725;SDS011;41776;48.260;8.928;2023-08-06T02:27:34;2.33;;;1.38;;
1725;SDS011;41776;48.260;8.928;2023-08-06T02:30:01;3.50;;;1.38;;
1725;SDS011;41776;48.260;8.928;2023-08-06T02:32:29;1.70;;;1.08;;
1725;SDS011;41776;48.260;8.928;2023-08-06T02:34:57;4.05;;;1.35;;
1725;SDS011;41776;48.260;8.928;2023-08-06T02:37:24;1.67;;;1.02;;
1725;SDS011;41776;48.260;8.928;2023-08-06T02:39:50;3.30;;;1.50;;
1725;SDS011;41776;48.260;8.928;2023-08-06T02:42:17;2.05;;;1.23;;
1725;SDS011;41776;48.260;8.928;2023-08-06T02:44:45;2.70;;;1.30;;
1725;SDS011;41776;48.260;8.928;2023-08-06T02:47:11;2.13;;;1.40;;
1725;SDS011;41776;48.260;8.928;2023-08-06T02:49:38;4.10;;;1.25;;
1725;SDS011;41776;48.260;8.928;2023-08-06T02:52:05;1.40;;;1.13;;
1725;SDS011;41776;48.260;8.928;2023-08-06T02:54:32;3.10;;;1.30;;
1725;SDS011;41776;48.260;8.928;2023-08-06T02:56:58;4.38;;;1.65;;
1725;SDS011;41776;48.260;8.928;2023-08-06T02:59:25;2.70;;;1.45;;
1725;SDS011;41776;48.260;8.928;2023-08-06T03:01:53;2.10;;;1.30;;
1725;SDS011;41776;48.260;8.928;2023-08-06T03:04:19;2.17;;;1.38;;
1725;SDS011;41776;48.260;8.928;2023-08-06T03:06:46;2.08;;;1.20;;
1725;SDS011;41776;48.260;8.928;2023-08-06T03:09:12;4.55;;;1.50;;
1725;SDS011;41776;48.260;8.928;2023-08-06T03:11:38;5.80;;;1.20;;
1725;SDS011;41776;48.260;8.928;2023-08-06T03:14:04;2.00;;;1.27;;
1725;SDS011;41776;48.260;8.928;2023-08-06T03:16:32;1.88;;;1.30;;
1725;SDS011;41776;48.260;8.928;2023-08-06T03:19:00;3.75;;;1.30;;
1725;SDS011;41776;48.260;8.928;2023-08-06T03:21:27;4.20;;;1.20;;
1725;SDS011;41776;48.260;8.928;2023-08-06T03:23:54;5.65;;;1.30;;
1725;SDS011;41776;48.260;8.928;2023-08-06T03:26:20;2.42;;;1.40;;
1725;SDS011;41776;48.260;8.928;2023-08-06T03:28:49;2.35;;;1.38;;
1725;SDS011;41776;48.260;8.928;2023-08-06T03:31:16;2.30;;;1.50;;
1725;SDS011;41776;48.260;8.928;2023-08-06T03:33:43;5.72;;;1.50;;
1725;SDS011;41776;48.260;8.928;2023-08-06T03:36:16;1.98;;;1.13;;
1725;SDS011;41776;48.260;8.928;2023-08-06T03:38:43;3.75;;;1.40;;
1725;SDS011;41776;48.260;8.928;2023-08-06T03:41:19;4.13;;;1.38;;
1725;SDS011;41776;48.260;8.928;2023-08-06T03:43:46;2.33;;;1.20;;
1725;SDS011;41776;48.260;8.928;2023-08-06T03:46:12;5.72;;;1.50;;
1725;SDS011;41776;48.260;8.928;2023-08-06T03:48:42;2.08;;;1.15;;
1725;SDS011;41776;48.260;8.928;2023-08-06T03:51:08;8.32;;;1.40;;
1725;SDS011;41776;48.260;8.928;2023-08-06T03:53:36;2.75;;;1.25;;
1725;SDS011;41776;48.260;8.928;2023-08-06T03:56:03;2.80;;;1.40;;
1725;SDS011;41776;48.260;8.928;2023-08-06T03:58:30;3.70;;;1.58;;
1725;SDS011;41776;48.260;8.928;2023-08-06T04:00:59;3.42;;;1.20;;
1725;SDS011;41776;48.260;8.928;2023-08-06T04:03:26;5.07;;;1.50;;
1725;SDS011;41776;48.260;8.928;2023-08-06T04:05:53;1.10;;;1.00;;
1725;SDS011;41776;48.260;8.928;2023-08-06T04:08:25;2.70;;;1.20;;
1725;SDS011;41776;48.260;8.928;2023-08-06T04:10:53;4.22;;;1.25;;
1725;SDS011;41776;48.260;8.928;2023-08-06T04:13:20;1.38;;;1.00;;
1725;SDS011;41776;48.260;8.928;2023-08-06T04:15:46;1.52;;;1.20;;
1725;SDS011;41776;48.260;8.928;2023-08-06T04:18:13;1.27;;;1.10;;
1725;SDS011;41776;48.260;8.928;2023-08-06T04:20:43;1.80;;;1.25;;
1725;SDS011;41776;48.260;8.928;2023-08-06T04:23:10;2.55;;;0.95;;
1725;SDS011;41776;48.260;8.928;2023-08-06T04:25:37;4.45;;;1.10;;
1725;SDS011;41776;48.260;8.928;2023-08-06T04:28:06;0.98;;;0.85;;
1725;SDS011;41776;48.260;8.928;2023-08-06T04:30:32;1.40;;;0.90;;
1725;SDS011;41776;48.260;8.928;2023-08-06T04:32:59;2.78;;;0.90;;
1725;SDS011;41776;48.260;8.928;2023-08-06T04:35:26;0.90;;;0.82;;
1725;SDS011;41776;48.260;8.928;2023-08-06T04:37:52;0.88;;;0.77;;
1725;SDS011;41776;48.260;8.928;2023-08-06T04:40:21;2.70;;;1.10;;
1725;SDS011;41776;48.260;8.928;2023-08-06T04:42:47;3.15;;;0.95;;
1725;SDS011;41776;48.260;8.928;2023-08-06T04:45:15;1.20;;;0.80;;
1725;SDS011;41776;48.260;8.928;2023-08-06T04:47:42;3.92;;;1.00;;
1725;SDS011;41776;48.260;8.928;2023-08-06T04:50:08;4.90;;;0.90;;
1725;SDS011;41776;48.260;8.928;2023-08-06T04:52:38;2.35;;;0.60;;
1725;SDS011;41776;48.260;8.928;2023-08-06T04:55:08;0.90;;;0.50;;
1725;SDS011;41776;48.260;8.928;2023-08-06T04:57:34;1.00;;;0.68;;
1725;SDS011;41776;48.260;8.928;2023-08-06T05:00:01;0.85;;;0.73;;
1725;SDS011;41776;48.260;8.928;2023-08-06T05:02:29;1.02;;;0.70;;
1725;SDS011;41776;48.260;8.928;2023-08-06T05:04:57;1.95;;;0.70;;
1725;SDS011;41776;48.260;8.928;2023-08-06T05:07:24;0.70;;;0.65;;
1725;SDS011;41776;48.260;8.928;2023-08-06T05:09:50;3.35;;;0.68;;
1725;SDS011;41776;48.260;8.928;2023-08-06T05:12:17;1.35;;;0.55;;
1725;SDS011;41776;48.260;8.928;2023-08-06T05:14:43;1.02;;;0.60;;
1725;SDS011;41776;48.260;8.928;2023-08-06T05:17:10;3.95;;;0.70;;
1725;SDS011;41776;48.260;8.928;2023-08-06T05:22:22;1.88;;;0.73;;
1725;SDS011;41776;48.260;8.928;2023-08-06T05:24:49;1.38;;;0.52;;
1725;SDS011;41776;48.260;8.928;2023-08-06T05:27:18;1.27;;;1.00;;
1725;SDS011;41776;48.260;8.928;2023-08-06T05:29:54;1.70;;;0.60;;
1725;SDS011;41776;48.260;8.928;2023-08-06T05:32:25;1.52;;;0.40;;
1725;SDS011;41776;48.260;8.928;2023-08-06T05:34:53;1.85;;;0.60;;
1725;SDS011;41776;48.260;8.928;2023-08-06T05:37:22;0.93;;;0.60;;
1725;SDS011;41776;48.260;8.928;2023-08-06T05:39:48;0.65;;;0.60;;
1725;SDS011;41776;48.260;8.928;2023-08-06T05:42:16;0.82;;;0.60;;
1725;SDS011;41776;48.260;8.928;2023-08-06T05:44:43;1.77;;;0.60;;
1725;SDS011;41776;48.260;8.928;2023-08-06T05:47:10;1.38;;;0.63;;
1725;SDS011;41776;48.260;8.928;2023-08-06T05:49:36;0.73;;;0.70;;
1725;SDS011;41776;48.260;8.928;2023-08-06T05:52:05;1.27;;;0.50;;
1725;SDS011;41776;48.260;8.928;2023-08-06T05:54:33;2.95;;;0.63;;
1725;SDS011;41776;48.260;8.928;2023-08-06T05:56:59;0.50;;;0.50;;
1725;SDS011;41776;48.260;8.928;2023-08-06T05:59:26;1.38;;;0.40;;
1725;SDS011;41776;48.260;8.928;2023-08-06T06:01:53;1.17;;;0.52;;
1725;SDS011;41776;48.260;8.928;2023-08-06T06:04:27;1.75;;;0.60;;
1725;SDS011;41776;48.260;8.928;2023-08-06T06:06:54;0.50;;;0.50;;
1725;SDS011;41776;48.260;8.928;2023-08-06T06:09:22;1.60;;;0.52;;
1725;SDS011;41776;48.260;8.928;2023-08-06T06:11:50;0.70;;;0.40;;
1725;SDS011;41776;48.260;8.928;2023-08-06T06:14:17;0.68;;;0.40;;
1725;SDS011;41776;48.260;8.928;2023-08-06T06:16:46;0.40;;;0.40;;
1725;SDS011;41776;48.260;8.928;2023-08-06T06:19:13;1.42;;;0.63;;
1725;SDS011;41776;48.260;8.928;2023-08-06T06:21:39;1.15;;;0.70;;
1725;SDS011;41776;48.260;8.928;2023-08-06T06:24:06;0.40;;;0.40;;
1725;SDS011;41776;48.260;8.928;2023-08-06T06:26:34;1.25;;;0.45;;
1725;SDS011;41776;48.260;8.928;2023-08-06T06:29:02;0.40;;;0.30;;
1725;SDS011;41776;48.260;8.928;2023-08-06T06:31:29;0.22;;;0.20;;
1725;SDS011;41776;48.260;8.928;2023-08-06T06:33:55;1.75;;;0.50;;
1725;SDS011;41776;48.260;8.928;2023-08-06T06:36:22;0.50;;;0.40;;
1725;SDS011;41776;48.260;8.928;2023-08-06T06:38:49;0.40;;;0.40;;
1725;SDS011;41776;48.260;8.928;2023-08-06T06:41:16;0.52;;;0.40;;
1725;SDS011;41776;48.260;8.928;2023-08-06T06:43:44;0.50;;;0.43;;
1725;SDS011;41776;48.260;8.928;2023-08-06T06:46:10;1.23;;;0.40;;
1725;SDS011;41776;48.260;8.928;2023-08-06T06:48:37;0.40;;;0.35;;
1725;SDS011;41776;48.260;8.928;2023-08-06T06:51:03;1.85;;;0.75;;
1725;SDS011;41776;48.260;8.928;2023-08-06T06:53:30;0.80;;;0.40;;
1725;SDS011;41776;48.260;8.928;2023-08-06T06:56:01;0.40;;;0.40;;
1725;SDS011;41776;48.260;8.928;2023-08-06T06:58:29;0.30;;;0.30;;
1725;SDS011;41776;48.260;8.928;2023-08-06T07:00:57;1.48;;;0.38;;
1725;SDS011;41776;48.260;8.928;2023-08-06T07:03:23;0.85;;;0.45;;
1725;SDS011;41776;48.260;8.928;2023-08-06T07:05:50;1.38;;;0.40;;
1725;SDS011;41776;48.260;8.928;2023-08-06T07:08:17;0.40;;;0.40;;
1725;SDS011;41776;48.260;8.928;2023-08-06T07:10:47;0.45;;;0.38;;
1725;SDS011;41776;48.260;8.928;2023-08-06T07:13:19;0.65;;;0.40;;
1725;SDS011;41776;48.260;8.928;2023-08-06T07:15:47;0.73;;;0.40;;
1725;SDS011;41776;48.260;8.928;2023-08-06T07:18:15;0.40;;;0.40;;
1725;SDS011;41776;48.260;8.928;2023-08-06T07:20:42;0.47;;;0.43;;
1725;SDS011;41776;48.260;8.928;2023-08-06T07:23:14;0.30;;;0.30;;
1725;SDS011;41776;48.260;8.928;2023-08-06T07:25:41;1.05;;;0.60;;
1725;SDS011;41776;48.260;8.928;2023-08-06T07:28:09;0.82;;;0.30;;
1725;SDS011;41776;48.260;8.928;2023-08-06T07:30:38;0.35;;;0.35;;
1725;SDS011;41776;48.260;8.928;2023-08-06T07:33:04;0.32;;;0.30;;
1725;SDS011;41776;48.260;8.928;2023-08-06T07:35:33;1.02;;;0.60;;
1725;SDS011;41776;48.260;8.928;2023-08-06T07:38:00;0.50;;;0.40;;
1725;SDS011;41776;48.260;8.928;2023-08-06T07:40:26;0.40;;;0.40;;
1725;SDS011;41776;48.260;8.928;2023-08-06T07:42:53;0.40;;;0.40;;
1725;SDS011;41776;48.260;8.928;2023-08-06T07:45:23;0.40;;;0.30;;
1725;SDS011;41776;48.260;8.928;2023-08-06T07:47:51;0.77;;;0.40;;
1725;SDS011;41776;48.260;8.928;2023-08-06T07:50:18;0.30;;;0.30;;
1725;SDS011;41776;48.260;8.928;2023-08-06T07:52:49;0.32;;;0.32;;
1725;SDS011;41776;48.260;8.928;2023-08-06T07:55:15;0.20;;;0.20;;
1725;SDS011;41776;48.260;8.928;2023-08-06T07:57:44;0.40;;;0.40;;
1725;SDS011;41776;48.260;8.928;2023-08-06T08:00:11;0.70;;;0.40;;
1725;SDS011;41776;48.260;8.928;2023-08-06T08:02:38;0.35;;;0.35;;
1725;SDS011;41776;48.260;8.928;2023-08-06T08:05:04;0.43;;;0.30;;
1725;SDS011;41776;48.260;8.928;2023-08-06T08:07:32;0.95;;;0.30;;
1725;SDS011;41776;48.260;8.928;2023-08-06T08:10:00;0.65;;;0.40;;
1725;SDS011;41776;48.260;8.928;2023-08-06T08:12:27;0.63;;;0.38;;
1725;SDS011;41776;48.260;8.928;2023-08-06T08:14:56;0.30;;;0.30;;
1725;SDS011;41776;48.260;8.928;2023-08-06T08:17:22;0.30;;;0.30;;
1725;SDS011;41776;48.260;8.928;2023-08-06T08:19:49;0.40;;;0.40;;
1725;SDS011;41776;48.260;8.928;2023-08-06T08:22:16;0.20;;;0.20;;
1725;SDS011;41776;48.260;8.928;2023-08-06T08:24:42;0.82;;;0.45;;
1725;SDS011;41776;48.260;8.928;2023-08-06T08:27:10;0.52;;;0.40;;
1725;SDS011;41776;48.260;8.928;2023-08-06T08:29:37;0.35;;;0.35;;
1725;SDS011;41776;48.260;8.928;2023-08-06T08:32:03;0.43;;;0.43;;
1725;SDS011;41776;48.260;8.928;2023-08-06T08:34:31;0.40;;;0.40;;
1725;SDS011;41776;48.260;8.928;2023-08-06T08:37:00;0.77;;;0.40;;
1725;SDS011;41776;48.260;8.928;2023-08-06T08:39:27;0.50;;;0.43;;
1725;SDS011;41776;48.260;8.928;2023-08-06T08:41:53;0.30;;;0.30;;
1725;SDS011;41776;48.260;8.928;2023-08-06T08:44:21;0.38;;;0.38;;
1725;SDS011;41776;48.260;8.928;2023-08-06T08:46:48;0.50;;;0.30;;
1725;SDS011;41776;48.260;8.928;2023-08-06T08:49:15;0.40;;;0.40;;
1725;SDS011;41776;48.260;8.928;2023-08-06T08:51:41;0.65;;;0.65;;
1725;SDS011;41776;48.260;8.928;2023-08-06T08:54:11;1.20;;;0.40;;
1725;SDS011;41776;48.260;8.928;2023-08-06T08:56:41;0.20;;;0.20;;
1725;SDS011;41776;48.260;8.928;2023-08-06T08:59:11;0.40;;;0.40;;
1725;SDS011;41776;48.260;8.928;2023-08-06T09:01:39;0.55;;;0.32;;
1725;SDS011;41776;48.260;8.928;2023-08-06T09:04:08;0.20;;;0.20;;
1725;SDS011;41776;48.260;8.928;2023-08-06T09:06:37;0.38;;;0.38;;
1725;SDS011;41776;48.260;8.928;2023-08-06T09:09:06;0.40;;;0.40;;
1725;SDS011;41776;48.260;8.928;2023-08-06T09:11:35;0.30;;;0.30;;
1725;SDS011;41776;48.260;8.928;2023-08-06T09:14:06;0.52;;;0.30;;
1725;SDS011;41776;48.260;8.928;2023-08-06T09:16:33;0.30;;;0.30;;
1725;SDS011;41776;48.260;8.928;2023-08-06T09:19:07;0.30;;;0.30;;
1725;SDS011;41776;48.260;8.928;2023-08-06T09:21:36;0.65;;;0.30;;
1725;SDS011;41776;48.260;8.928;2023-08-06T09:24:06;0.73;;;0.40;;
1725;SDS011;41776;48.260;8.928;2023-08-06T09:26:34;0.70;;;0.40;;
1725;SDS011;41776;48.260;8.928;2023-08-06T09:29:00;0.45;;;0.45;;
1725;SDS011;41776;48.260;8.928;2023-08-06T09:31:32;0.30;;;0.30;;
1725;SDS011;41776;48.260;8.928;2023-08-06T09:33:59;0.40;;;0.40;;
1725;SDS011;41776;48.260;8.928;2023-08-06T09:36:27;0.82;;;0.47;;
1725;SDS011;41776;48.260;8.928;2023-08-06T09:38:53;0.60;;;0.40;;
1725;SDS011;41776;48.260;8.928;2023-08-06T09:41:25;0.20;;;0.20;;
1725;SDS011;41776;48.260;8.928;2023-08-06T09:43:53;0.30;;;0.30;;
1725;SDS011;41776;48.260;8.928;2023-08-06T09:46:19;0.30;;;0.30;;
1725;SDS011;41776;48.260;8.928;2023-08-06T09:48:47;0.30;;;0.20;;
1725;SDS011;41776;48.260;8.928;2023-08-06T09:51:14;0.50;;;0.30;;
1725;SDS011;41776;48.260;8.928;2023-08-06T09:53:42;0.50;;;0.50;;
1725;SDS011;41776;48.260;8.928;2023-08-06T09:56:09;0.50;;;0.50;;
1725;SDS011;41776;48.260;8.928;2023-08-06T09:58:38;0.98;;;0.60;;
1725;SDS011;41776;48.260;8.928;2023-08-06T10:01:06;0.40;;;0.40;;
1725;SDS011;41776;48.260;8.928;2023-08-06T10:03:33;0.50;;;0.50;;
1725;SDS011;41776;48.260;8.928;2023-08-06T10:06:00;0.50;;;0.50;;
1725;SDS011;41776;48.260;8.928;2023-08-06T10:08:31;0.68;;;0.50;;
1725;SDS011;41776;48.260;8.928;2023-08-06T10:10:58;0.57;;;0.40;;
1725;SDS011;41776;48.260;8.928;2023-08-06T10:13:27;0.63;;;0.60;;
1725;SDS011;41776;48.260;8.928;2023-08-06T10:15:54;0.70;;;0.50;;
1725;SDS011;41776;48.260;8.928;2023-08-06T10:18:21;1.90;;;0.65;;
1725;SDS011;41776;48.260;8.928;2023-08-06T10:20:48;0.40;;;0.40;;
1725;SDS011;41776;48.260;8.928;2023-08-06T10:23:14;1.10;;;0.70;;
1725;SDS011;41776;48.260;8.928;2023-08-06T10:25:42;0.95;;;0.65;;
1725;SDS011;41776;48.260;8.928;2023-08-06T10:28:10;0.68;;;0.60;;
1725;SDS011;41776;48.260;8.928;2023-08-06T10:30:44;1.95;;;0.45;;
1725;SDS011;41776;48.260;8.928;2023-08-06T10:33:11;0.50;;;0.50;;
1725;SDS011;41776;48.260;8.928;2023-08-06T10:35:38;0.47;;;0.47;;
1725;SDS011;41776;48.260;8.928;2023-08-06T10:38:09;0.80;;;0.60;;
1725;SDS011;41776;48.260;8.928;2023-08-06T10:40:36;0.40;;;0.40;;
1725;SDS011;41776;48.260;8.928;2023-08-06T10:43:05;0.30;;;0.30;;
1725;SDS011;41776;48.260;8.928;2023-08-06T10:45:35;0.40;;;0.40;;
1725;SDS011;41776;48.260;8.928;2023-08-06T10:48:03;2.05;;;0.30;;
1725;SDS011;41776;48.260;8.928;2023-08-06T10:50:30;1.33;;;0.75;;
1725;SDS011;41776;48.260;8.928;2023-08-06T10:52:58;0.73;;;0.30;;
1725;SDS011;41776;48.260;8.928;2023-08-06T10:55:30;0.20;;;0.20;;
1725;SDS011;41776;48.260;8.928;2023-08-06T10:57:57;0.40;;;0.40;;
1725;SDS011;41776;48.260;8.928;2023-08-06T11:00:24;0.57;;;0.50;;
1725;SDS011;41776;48.260;8.928;2023-08-06T11:02:52;0.52;;;0.52;;
1725;SDS011;41776;48.260;8.928;2023-08-06T11:05:19;0.60;;;0.40;;
1725;SDS011;41776;48.260;8.928;2023-08-06T11:07:46;0.60;;;0.60;;
1725;SDS011;41776;48.260;8.928;2023-08-06T11:10:14;0.40;;;0.40;;
1725;SDS011;41776;48.260;8.928;2023-08-06T11:12:41;0.40;;;0.40;;
1725;SDS011;41776;48.260;8.928;2023-08-06T11:15:08;0.45;;;0.45;;
1725;SDS011;41776;48.260;8.928;2023-08-06T11:17:35;0.40;;;0.30;;
1725;SDS011;41776;48.260;8.928;2023-08-06T11:20:03;0.35;;;0.35;;
1725;SDS011;41776;48.260;8.928;2023-08-06T11:22:31;0.30;;;0.30;;
1725;SDS011;41776;48.260;8.928;2023-08-06T11:24:57;0.80;;;0.40;;
1725;SDS011;41776;48.260;8.928;2023-08-06T11:27:26;0.38;;;0.38;;
1725;SDS011;41776;48.260;8.928;2023-08-06T11:29:53;0.35;;;0.30;;
1725;SDS011;41776;48.260;8.928;2023-08-06T11:32:19;0.40;;;0.40;;
1725;SDS011;41776;48.260;8.928;2023-08-06T11:34:46;0.70;;;0.20;;
1725;SDS011;41776;48.260;8.928;2023-08-06T11:37:14;0.30;;;0.30;;
1725;SDS011;41776;48.260;8.928;2023-08-06T11:39:46;1.92;;;0.40;;
1725;SDS011;41776;48.260;8.928;2023-08-06T11:42:14;0.30;;;0.30;;
1725;SDS011;41776;48.260;8.928;2023-08-06T11:44:40;0.60;;;0.40;;
1725;SDS011;41776;48.260;8.928;2023-08-06T11:47:11;0.20;;;0.20;;
1725;SDS011;41776;48.260;8.928;2023-08-06T11:49:40;1.10;;;0.45;;
1725;SDS011;41776;48.260;8.928;2023-08-06T11:52:18;0.20;;;0.20;;
1725;SDS011;41776;48.260;8.928;2023-08-06T11:54:46;0.30;;;0.30;;
1725;SDS011;41776;48.260;8.928;2023-08-06T11:57:13;4.97;;;0.93;;
1725;SDS011;41776;48.260;8.928;2023-08-06T11:59:40;1.50;;;0.40;;
1725;SDS011;41776;48.260;8.928;2023-08-06T12:02:08;1.45;;;0.60;;
1725;SDS011;41776;48.260;8.928;2023-08-06T12:07:27;0.82;;;0.65;;
1725;SDS011;41776;48.260;8.928;2023-08-06T12:09:55;3.67;;;0.80;;
1725;SDS011;41776;48.260;8.928;2023-08-06T12:12:22;1.52;;;0.90;;
1725;SDS011;41776;48.260;8.928;2023-08-06T12:14:48;1.08;;;0.90;;
1725;SDS011;41776;48.260;8.928;2023-08-06T12:17:15;2.97;;;0.70;;
1725;SDS011;41776;48.260;8.928;2023-08-06T12:19:41;1.45;;;0.90;;
1725;SDS011;41776;48.260;8.928;2023-08-06T12:22:08;1.40;;;1.20;;
1725;SDS011;41776;48.260;8.928;2023-08-06T12:24:35;1.25;;;0.73;;
1725;SDS011;41776;48.260;8.928;2023-08-06T12:27:02;1.52;;;0.93;;
1725;SDS011;41776;48.260;8.928;2023-08-06T12:29:29;1.35;;;1.00;;
1725;SDS011;41776;48.260;8.928;2023-08-06T12:31:56;1.00;;;0.90;;
1725;SDS011;41776;48.260;8.928;2023-08-06T12:34:22;1.15;;;0.85;;
1725;SDS011;41776;48.260;8.928;2023-08-06T12:36:49;1.75;;;0.68;;
1725;SDS011;41776;48.260;8.928;2023-08-06T12:39:15;1.25;;;1.10;;
1725;SDS011;41776;48.260;8.928;2023-08-06T12:41:43;1.70;;;0.77;;
1725;SDS011;41776;48.260;8.928;2023-08-06T12:44:11;2.53;;;0.98;;
1725;SDS011;41776;48.260;8.928;2023-08-06T12:46:37;0.80;;;0.80;;
1725;SDS011;41776;48.260;8.928;2023-08-06T12:49:03;0.90;;;0.75;;
1725;SDS011;41776;48.260;8.928;2023-08-06T12:51:30;1.00;;;0.63;;
1725;SDS011;41776;48.260;8.928;2023-08-06T12:53:58;0.52;;;0.52;;
1725;SDS011;41776;48.260;8.928;2023-08-06T12:56:25;0.50;;;0.50;;
1725;SDS011;41776;48.260;8.928;2023-08-06T12:58:53;0.98;;;0.50;;
1725;SDS011;41776;48.260;8.928;2023-08-06T13:01:22;0.50;;;0.50;;
1725;SDS011;41776;48.260;8.928;2023-08-06T13:03:48;0.43;;;0.43;;
1725;SDS011;41776;48.260;8.928;2023-08-06T13:06:15;0.60;;;0.40;;
1725;SDS011;41776;48.260;8.928;2023-08-06T13:08:41;0.57;;;0.50;;
1725;SDS011;41776;48.260;8.928;2023-08-06T13:11:08;0.52;;;0.47;;
1725;SDS011;41776;48.260;8.928;2023-08-06T13:13:34;0.40;;;0.40;;
1725;SDS011;41776;48.260;8.928;2023-08-06T13:16:02;0.38;;;0.38;;
1725;SDS011;41776;48.260;8.928;2023-08-06T13:18:29;1.50;;;0.70;;
1725;SDS011;41776;48.260;8.928;2023-08-06T13:20:56;1.02;;;0.43;;
1725;SDS011;41776;48.260;8.928;2023-08-06T13:23:22;0.40;;;0.40;;
1725;SDS011;41776;48.260;8.928;2023-08-06T13:25:49;1.42;;;0.50;;
1725;SDS011;41776;48.260;8.928;2023-08-06T13:28:15;0.40;;;0.40;;
1725;SDS011;41776;48.260;8.928;2023-08-06T13:30:42;0.50;;;0.45;;
1725;SDS011;41776;48.260;8.928;2023-08-06T13:33:10;0.90;;;0.50;;
1725;SDS011;41776;48.260;8.928;2023-08-06T13:35:37;0.40;;;0.40;;
1725;SDS011;41776;48.260;8.928;2023-08-06T13:38:04;0.50;;;0.50;;
1725;SDS011;41776;48.260;8.928;2023-08-06T13:40:31;0.50;;;0.50;;
1725;SDS011;41776;48.260;8.928;2023-08-06T13:42:58;0.47;;;0.47;;
1725;SDS011;41776;48.260;8.928;2023-08-06T13:45:25;0.40;;;0.40;;
1725;SDS011;41776;48.260;8.928;2023-08-06T13:47:52;0.60;;;0.50;;
1725;SDS011;41776;48.260;8.928;2023-08-06T13:50:19;0.70;;;0.47;;
1725;SDS011;41776;48.260;8.928;2023-08-06T13:52:47;1.48;;;0.50;;
1725;SDS011;41776;48.260;8.928;2023-08-06T13:55:13;0.47;;;0.47;;
1725;SDS011;41776;48.260;8.928;2023-08-06T13:57:41;0.63;;;0.40;;
1725;SDS011;41776;48.260;8.928;2023-08-06T14:00:07;0.50;;;0.50;;
1725;SDS011;41776;48.260;8.928;2023-08-06T14:02:35;1.65;;;0.57;;
1725;SDS011;41776;48.260;8.928;2023-08-06T14:05:01;0.40;;;0.40;;
1725;SDS011;41776;48.260;8.928;2023-08-06T14:07:29;0.32;;;0.32;;
1725;SDS011;41776;48.260;8.928;2023-08-06T14:09:55;0.40;;;0.40;;
1725;SDS011;41776;48.260;8.928;2023-08-06T14:12:22;0.85;;;0.57;;
1725;SDS011;41776;48.260;8.928;2023-08-06T14:14:49;3.70;;;0.50;;
1725;SDS011;41776;48.260;8.928;2023-08-06T14:17:15;0.40;;;0.40;;
1725;SDS011;41776;48.260;8.928;2023-08-06T14:19:42;2.15;;;0.63;;
1725;SDS011;41776;48.260;8.928;2023-08-06T14:22:08;0.40;;;0.40;;
1725;SDS011;41776;48.260;8.928;2023-08-06T14:24:36;1.08;;;0.80;;
1725;SDS011;41776;48.260;8.928;2023-08-06T14:27:03;0.77;;;0.65;;
1725;SDS011;41776;48.260;8.928;2023-08-06T14:29:31;0.50;;;0.50;;
1725;SDS011;41776;48.260;8.928;2023-08-06T14:31:57;1.48;;;0.50;;
1725;SDS011;41776;48.260;8.928;2023-08-06T14:34:23;1.42;;;0.50;;
1725;SDS011;41776;48.260;8.928;2023-08-06T14:36:50;1.40;;;0.50;;
1725;SDS011;41776;48.260;8.928;2023-08-06T14:39:16;0.40;;;0.40;;
1725;SDS011;41776;48.260;8.928;2023-08-06T14:41:44;1.00;;;0.50;;
1725;SDS011;41776;48.260;8.928;2023-08-06T14:44:11;1.85;;;0.40;;
1725;SDS011;41776;48.260;8.928;2023-08-06T14:46:37;0.73;;;0.57;;
1725;SDS011;41776;48.260;8.928;2023-08-06T14:49:04;6.70;;;0.70;;
1725;SDS011;41776;48.260;8.928;2023-08-06T14:51:30;0.30;;;0.30;;
1725;SDS011;41776;48.260;8.928;2023-08-06T14:53:56;0.60;;;0.50;;
1725;SDS011;41776;48.260;8.928;2023-08-06T14:56:23;1.63;;;0.50;;
1725;SDS011;41776;48.260;8.928;2023-08-06T14:58:51;0.57;;;0.57;;
1725;SDS011;41776;48.260;8.928;2023-08-06T15:01:17;1.63;;;0.60;;
1725;SDS011;41776;48.260;8.928;2023-08-06T15:03:43;0.75;;;0.52;;
1725;SDS011;41776;48.260;8.928;2023-08-06T15:06:10;0.70;;;0.55;;
1725;SDS011;41776;48.260;8.928;2023-08-06T15:08:36;1.30;;;0.63;;